Time;durP1;ratioP1;P1;durP2;ratioP2;P2;SDS_P1;SDS_P2;PMS_P1;PMS_P2;Temp;Humidity;BMP_temperature;BMP_pressure;BME280_temperature;BME280_humidity;BME280_pressure;Samples;Min_cycle;Max_cycle;Signal;HPM_P1;HPM_P2
2021/08/05 00:02:11;;;;;;;8.55;7.85;;;;;;;14.77;100.00;100460.97;3585529;40;20064;-56
2021/08/05 00:04:39;;;;;;;7.75;7.05;;;;;;;14.93;100.00;100443.84;3585541;40;20080;-53
2021/08/05 00:07:06;;;;;;;7.97;7.20;;;;;;;14.89;100.00;100447.31;3585367;40;20076;-51
2021/08/05 00:09:34;;;;;;;7.95;7.15;;;;;;;14.84;100.00;100443.84;3585799;40;20067;-53
2021/08/05 00:12:01;;;;;;;8.20;6.82;;;;;;;14.97;100.00;100441.28;3585658;40;20059;-53
2021/08/05 00:14:28;;;;;;;8.15;6.78;;;;;;;14.86;100.00;100442.97;3585669;40;20060;-52
2021/08/05 00:16:55;;;;;;;8.32;7.45;;;;;;;14.67;100.00;100438.59;3585499;40;20076;-53
2021/08/05 00:19:22;;;;;;;7.57;6.78;;;;;;;14.87;100.00;100438.69;3585479;40;20076;-52
2021/08/05 00:21:49;;;;;;;8.25;6.78;;;;;;;14.89;100.00;100435.28;3587034;40;20081;-51
2021/08/05 00:24:16;;;;;;;7.43;6.70;;;;;;;14.77;100.00;100433.50;3586856;40;20071;-51
2021/08/05 00:26:43;;;;;;;7.32;6.72;;;;;;;15.14;100.00;100432.75;3586988;40;20080;-52
2021/08/05 00:29:10;;;;;;;7.03;6.43;;;;;;;14.96;100.00;100434.41;3586888;40;20100;-51
2021/08/05 00:31:37;;;;;;;8.45;6.78;;;;;;;14.96;100.00;100437.00;3586879;40;20453;-53
2021/08/05 00:34:04;;;;;;;6.75;6.00;;;;;;;14.87;100.00;100434.38;3587595;40;20052;-53
2021/08/05 00:36:31;;;;;;;7.32;6.25;;;;;;;14.85;100.00;100435.25;3586970;40;20068;-52
2021/08/05 00:38:58;;;;;;;8.15;6.10;;;;;;;14.88;100.00;100437.81;3587506;40;20333;-50
2021/08/05 00:41:25;;;;;;;7.25;6.28;;;;;;;14.81;100.00;100441.25;3587171;40;20108;-53
2021/08/05 00:43:52;;;;;;;10.77;6.72;;;;;;;14.64;100.00;100436.00;3586847;40;20458;-52
2021/08/05 00:46:19;;;;;;;6.80;6.10;;;;;;;14.65;100.00;100443.75;3587040;40;20093;-55
2021/08/05 00:48:46;;;;;;;6.72;5.70;;;;;;;14.81;100.00;100442.09;3587199;40;20041;-51
2021/08/05 00:51:13;;;;;;;7.95;6.05;;;;;;;15.09;100.00;100437.91;3587384;40;20342;-56
2021/08/05 00:53:43;;;;;;;6.07;5.47;;;;;;;15.06;100.00;100434.44;3586992;40;20084;-53
2021/08/05 00:56:11;;;;;;;6.53;5.93;;;;;;;14.93;100.00;100430.97;3587038;40;20072;-52
2021/08/05 00:58:38;;;;;;;6.30;5.68;;;;;;;14.97;100.00;100438.72;3586768;40;20261;-50
2021/08/05 01:01:16;;;;;;;5.85;5.30;;;;;;;14.84;100.00;100436.97;3586713;40;20043;-51
2021/08/05 01:03:48;;;;;;;6.50;5.88;;;;;;;14.82;100.00;100433.50;3586471;40;20052;-54
2021/08/05 01:06:33;;;;;;;5.65;5.25;;;;;;;14.98;100.00;100435.31;3586686;40;20088;-55
2021/08/05 01:09:34;;;;;;;8.68;5.40;;;;;;;15.17;100.00;100422.47;3586469;40;20380;-56
2021/08/05 01:12:14;;;;;;;5.28;4.88;;;;;;;14.91;100.00;100420.66;3586860;40;20077;-53
2021/08/05 01:14:47;;;;;;;7.18;5.30;;;;;;;14.76;100.00;100421.47;3586805;40;20088;-52
2021/08/05 01:17:18;;;;;;;5.60;5.10;;;;;;;14.78;100.00;100416.31;3586577;40;20084;-53
2021/08/05 01:19:56;;;;;;;6.13;5.53;;;;;;;14.88;100.00;100423.25;3586659;40;20382;-55
2021/08/05 01:22:29;;;;;;;5.00;4.60;;;;;;;14.87;100.00;100416.34;3586545;40;20056;-50
2021/08/05 01:25:12;;;;;;;6.35;4.88;;;;;;;14.91;100.00;100401.75;3586671;40;20108;-51
2021/08/05 01:27:40;;;;;;;6.53;5.03;;;;;;;15.04;100.00;100400.94;3586504;40;20080;-52
2021/08/05 01:30:10;;;;;;;5.15;4.68;;;;;;;15.22;100.00;100398.41;3586679;40;20099;-51
2021/08/05 01:32:39;;;;;;;6.07;4.60;;;;;;;15.10;100.00;100405.25;3585895;40;20067;-53
2021/08/05 01:35:07;;;;;;;8.10;5.15;;;;;;;14.75;100.00;100406.00;3586610;40;20084;-52
2021/08/05 01:37:35;;;;;;;5.00;4.60;;;;;;;15.08;100.00;100397.50;3586831;40;20049;-52
2021/08/05 01:40:03;;;;;;;4.40;4.00;;;;;;;14.98;100.00;100398.34;3596497;40;20058;-53
2021/08/05 01:42:31;;;;;;;6.28;4.60;;;;;;;14.83;100.00;100400.84;3596282;40;20095;-56
2021/08/05 01:44:59;;;;;;;5.50;4.45;;;;;;;14.94;100.00;100397.47;3596385;40;20354;-53
2021/08/05 01:47:26;;;;;;;4.80;4.30;;;;;;;14.91;100.00;100394.88;3596142;40;20086;-54
2021/08/05 01:49:54;;;;;;;4.97;4.47;;;;;;;14.70;100.00;100397.38;3596268;40;20051;-55
2021/08/05 01:52:22;;;;;;;5.38;4.38;;;;;;;14.88;100.00;100394.00;3596311;40;20092;-52
2021/08/05 01:54:49;;;;;;;4.60;4.20;;;;;;;14.73;100.00;100394.81;3596387;40;20080;-51
2021/08/05 01:57:16;;;;;;;7.07;4.78;;;;;;;14.57;100.00;100399.03;3596223;40;20046;-52
2021/08/05 01:59:43;;;;;;;5.78;4.57;;;;;;;14.60;100.00;100390.44;3596220;40;20088;-51
2021/08/05 02:02:13;;;;;;;8.35;4.72;;;;;;;14.78;100.00;100396.53;3596200;40;20084;-50
2021/08/05 02:04:54;;;;;;;5.47;4.47;;;;;;;14.68;100.00;100392.19;3596211;40;20421;-52
2021/08/05 02:08:10;;;;;;;7.13;4.50;;;;;;;14.74;100.00;100392.25;3596065;40;20087;-51
2021/08/05 02:10:48;;;;;;;4.70;4.30;;;;;;;14.69;100.00;100395.63;3593972;40;20430;-49
2021/08/05 02:13:24;;;;;;;4.93;4.20;;;;;;;14.61;100.00;100394.78;3596279;40;20080;-49
2021/08/05 02:15:55;;;;;;;7.18;4.53;;;;;;;14.49;100.00;100385.25;3596180;40;20072;-54
2021/08/05 02:18:29;;;;;;;6.75;4.90;;;;;;;14.47;100.00;100395.53;3596186;40;20087;-49
2021/08/05 02:20:58;;;;;;;4.60;4.05;;;;;;;14.45;100.00;100388.63;3596239;40;20336;-51
2021/08/05 02:23:28;;;;;;;6.20;4.55;;;;;;;14.42;100.00;100386.03;3596237;40;20096;-54
2021/08/05 02:25:56;;;;;;;5.25;4.45;;;;;;;14.64;100.00;100385.31;3595655;40;20436;-54
2021/08/05 02:28:25;;;;;;;4.53;4.10;;;;;;;14.65;100.00;100386.16;3595808;40;20059;-52
2021/08/05 02:30:54;;;;;;;5.15;4.65;;;;;;;14.58;100.00;100382.72;3596163;40;20048;-51
2021/08/05 02:33:23;;;;;;;5.35;4.18;;;;;;;14.55;100.00;100385.28;3596125;40;20133;-50
2021/08/05 02:35:51;;;;;;;5.53;4.57;;;;;;;14.63;100.00;100377.59;3595918;40;20075;-50
2021/08/05 02:38:19;;;;;;;4.45;4.05;;;;;;;14.54;100.00;100377.53;3595754;40;20092;-55
2021/08/05 02:40:48;;;;;;;8.25;4.65;;;;;;;14.45;100.00;100386.91;3595801;40;20084;-52
2021/08/05 02:43:16;;;;;;;5.28;3.97;;;;;;;14.43;100.00;100374.91;3595721;40;20077;-54
2021/08/05 02:45:46;;;;;;;5.72;4.93;;;;;;;14.41;100.00;100380.03;3595795;40;20048;-51
2021/08/05 02:48:14;;;;;;;6.05;4.25;;;;;;;14.36;100.00;100370.56;3595880;40;20088;-53
2021/08/05 02:50:42;;;;;;;5.00;4.30;;;;;;;14.24;100.00;100373.94;3596090;40;20100;-51
2021/08/05 02:53:10;;;;;;;5.00;4.50;;;;;;;14.52;100.00;100370.69;3595725;40;20092;-50
2021/08/05 02:55:37;;;;;;;4.82;4.38;;;;;;;14.45;100.00;100373.19;3595764;40;20036;-52
2021/08/05 02:58:04;;;;;;;7.05;4.18;;;;;;;14.35;100.00;100369.69;3596011;40;20088;-52
2021/08/05 03:00:31;;;;;;;5.10;4.45;;;;;;;14.49;100.00;100373.22;3596094;40;20060;-53
2021/08/05 03:02:59;;;;;;;5.70;4.10;;;;;;;14.47;100.00;100369.75;3596954;40;20079;-54
2021/08/05 03:05:27;;;;;;;4.00;3.58;;;;;;;14.50;100.00;100369.78;3598177;40;20068;-55
2021/08/05 03:07:53;;;;;;;4.18;3.78;;;;;;;14.52;100.00;100378.41;3596888;40;20107;-57
2021/08/05 03:10:20;;;;;;;5.80;4.13;;;;;;;14.46;100.00;100374.88;3595770;40;20049;-53
2021/08/05 03:12:47;;;;;;;6.20;4.18;;;;;;;14.54;100.00;100378.41;3595881;40;20250;-52
2021/08/05 03:15:15;;;;;;;6.22;4.55;;;;;;;14.49;100.00;100377.53;3596023;40;20092;-52
2021/08/05 03:17:42;;;;;;;5.88;4.22;;;;;;;14.31;100.00;100372.25;3595691;40;20052;-53
2021/08/05 03:20:15;;;;;;;5.57;4.50;;;;;;;14.40;100.00;100374.88;3595819;40;20321;-53
2021/08/05 03:22:45;;;;;;;4.55;4.00;;;;;;;14.59;100.00;100371.56;3595696;40;20086;-55
2021/08/05 03:25:12;;;;;;;6.57;4.00;;;;;;;14.59;100.00;100371.56;3595887;40;20047;-49
2021/08/05 03:27:40;;;;;;;5.25;4.05;;;;;;;14.61;100.00;100362.13;3592433;40;20080;-51
2021/08/05 03:30:09;;;;;;;7.72;4.40;;;;;;;14.43;100.00;100362.88;3596196;40;20313;-52
2021/08/05 03:32:36;;;;;;;5.70;4.50;;;;;;;14.50;100.00;100367.22;3595922;40;20413;-52
2021/08/05 03:35:03;;;;;;;5.18;4.22;;;;;;;14.38;100.00;100366.28;3595327;40;20080;-56
2021/08/05 03:37:31;;;;;;;4.90;4.30;;;;;;;14.17;100.00;100361.88;3595588;40;20225;-51
2021/08/05 03:39:57;;;;;;;4.60;4.07;;;;;;;14.40;100.00;100362.00;3595232;40;20492;-54
2021/08/05 03:42:24;;;;;;;9.57;4.28;;;;;;;14.08;100.00;100366.97;3593840;40;20060;-52
2021/08/05 03:44:52;;;;;;;4.63;4.00;;;;;;;14.18;100.00;100364.44;3595356;40;20093;-55
2021/08/05 03:47:23;;;;;;;4.57;4.18;;;;;;;14.06;100.00;100356.66;3590419;40;20057;-54
2021/08/05 03:49:51;;;;;;;7.68;4.07;;;;;;;14.26;100.00;100356.78;3592106;40;20325;-54
2021/08/05 03:52:18;;;;;;;5.50;4.25;;;;;;;14.41;100.00;100353.41;3595232;40;20084;-53
2021/08/05 03:55:00;;;;;;;7.97;4.40;;;;;;;14.21;100.00;100358.47;3594987;39;20060;-55
2021/08/05 03:57:27;;;;;;;5.80;4.35;;;;;;;14.22;100.00;100353.31;3596020;40;20569;-49
2021/08/05 03:59:54;;;;;;;8.45;4.55;;;;;;;14.23;100.00;100356.75;3591807;40;20040;-55
2021/08/05 04:02:22;;;;;;;5.70;3.80;;;;;;;14.08;100.00;100344.66;3597010;40;20401;-52
2021/08/05 04:04:58;;;;;;;6.53;4.55;;;;;;;14.24;100.00;100356.78;3596965;40;20059;-50
2021/08/05 04:07:25;;;;;;;9.88;5.18;;;;;;;14.30;100.00;100355.94;3597114;40;20056;-52
2021/08/05 04:09:52;;;;;;;7.45;4.97;;;;;;;14.19;100.00;100350.75;3596944;40;20156;-52
2021/08/05 04:12:19;;;;;;;5.75;4.53;;;;;;;14.21;100.00;100358.47;3596887;40;20091;-53
2021/08/05 04:14:46;;;;;;;10.77;4.35;;;;;;;14.43;100.00;100359.44;3596895;40;20048;-50
2021/08/05 04:17:13;;;;;;;5.45;4.18;;;;;;;14.43;100.00;100352.56;3596674;40;20063;-51
2021/08/05 04:19:40;;;;;;;7.90;5.03;;;;;;;14.12;100.00;100356.69;3596674;40;20099;-53
2021/08/05 04:22:07;;;;;;;5.28;4.75;;;;;;;14.25;100.00;100347.34;3597086;40;20067;-52
2021/08/05 04:24:34;;;;;;;8.15;4.90;;;;;;;14.49;100.00;100352.63;3596649;40;20083;-52
2021/08/05 04:27:01;;;;;;;11.77;4.28;;;;;;;14.37;100.00;100349.94;3596558;40;20060;-52
2021/08/05 04:29:28;;;;;;;6.38;4.57;;;;;;;14.32;100.00;100350.78;3596680;40;20103;-54
2021/08/05 04:31:55;;;;;;;8.23;4.70;;;;;;;14.26;100.00;100354.19;3596157;40;20047;-54
2021/08/05 04:34:22;;;;;;;8.05;4.47;;;;;;;14.22;100.00;100353.31;3596563;40;20429;-54
2021/08/05 04:36:49;;;;;;;6.55;5.15;;;;;;;14.60;100.00;100349.22;3596821;40;20084;-52
2021/08/05 04:39:19;;;;;;;7.70;4.78;;;;;;;14.63;100.00;100346.66;3587267;40;20108;-49
2021/08/05 04:41:46;;;;;;;8.05;4.40;;;;;;;14.60;100.00;100341.47;3596725;40;20076;-52
2021/08/05 04:44:13;;;;;;;5.97;4.45;;;;;;;14.74;100.00;100337.22;3596486;40;20067;-53
2021/08/05 04:46:40;;;;;;;10.23;5.05;;;;;;;14.58;100.00;100336.34;3596344;40;20107;-54
2021/08/05 04:49:07;;;;;;;5.20;4.70;;;;;;;14.60;100.00;100341.47;3589944;40;20075;-53
2021/08/05 04:51:34;;;;;;;5.60;4.78;;;;;;;14.87;100.00;100346.72;3586568;40;20074;-48
2021/08/05 04:54:03;;;;;;;5.10;4.60;;;;;;;14.97;100.00;100342.44;3585751;40;20079;-53
2021/08/05 04:56:31;;;;;;;6.13;4.35;;;;;;;15.16;100.00;100340.75;3586276;40;20106;-50
2021/08/05 04:58:59;;;;;;;6.10;4.43;;;;;;;15.19;100.00;100341.63;3586550;40;20460;-53
2021/08/05 05:01:26;;;;;;;10.13;4.78;;;;;;;15.22;100.00;100340.78;3586636;40;20049;-52
2021/08/05 05:03:54;;;;;;;11.90;5.38;;;;;;;14.98;100.00;100339.03;3586630;40;20146;-52
2021/08/05 05:06:21;;;;;;;7.15;4.70;;;;;;;15.09;100.00;100345.06;3586522;40;20410;-51
2021/08/05 05:08:48;;;;;;;7.22;4.72;;;;;;;15.27;100.00;100336.50;3586536;40;20076;-52
2021/08/05 05:11:15;;;;;;;8.32;5.47;;;;;;;15.04;100.00;100339.03;3586744;40;20129;-52
2021/08/05 05:13:42;;;;;;;11.40;4.60;;;;;;;15.28;100.00;100344.22;3586728;40;20057;-49
2021/08/05 05:16:09;;;;;;;7.75;4.70;;;;;;;15.35;100.00;100344.25;3586472;40;20057;-52
2021/08/05 05:18:36;;;;;;;6.78;4.90;;;;;;;15.50;100.00;100339.94;3586572;40;20340;-49
2021/08/05 05:21:04;;;;;;;6.22;4.72;;;;;;;15.36;100.00;100343.38;3586684;40;20513;-54
2021/08/05 05:23:31;;;;;;;15.25;5.28;;;;;;;15.50;100.00;100347.69;3586140;40;20422;-51
2021/08/05 05:25:59;;;;;;;9.63;5.22;;;;;;;15.66;100.00;100338.22;3678034;23;20056;-45
2021/08/05 05:28:27;;;;;;;7.95;4.90;;;;;;;16.04;100.00;100334.75;3594790;40;20515;-45
2021/08/05 05:30:54;;;;;;;9.55;5.50;;;;;;;16.56;97.82;100337.16;3594647;40;20099;-45
2021/08/05 05:33:21;;;;;;;15.73;5.40;;;;;;;16.45;98.89;100336.31;3594537;40;20064;-49
2021/08/05 05:35:49;;;;;;;8.68;5.28;;;;;;;16.71;95.94;100337.06;3593774;40;20346;-46
2021/08/05 05:38:18;;;;;;;11.27;5.28;;;;;;;16.55;96.25;100331.13;3584525;40;20369;-44
2021/08/05 05:40:49;;;;;;;7.70;4.70;;;;;;;16.36;97.06;100336.34;3587297;40;20062;-46
2021/08/05 05:43:16;;;;;;;9.55;4.93;;;;;;;16.28;97.70;100336.41;3594449;40;20088;-43
2021/08/05 05:45:44;;;;;;;7.50;4.78;;;;;;;16.28;98.15;100331.22;3594506;39;20082;-42
2021/08/05 05:48:11;;;;;;;9.20;4.82;;;;;;;16.42;98.95;100331.19;3594624;40;20036;-43
2021/08/05 05:50:39;;;;;;;7.78;4.82;;;;;;;16.51;97.93;100328.56;3595046;40;20348;-42
2021/08/05 05:53:06;;;;;;;5.57;4.72;;;;;;;16.69;98.09;100333.66;3595041;40;20052;-42
2021/08/05 05:55:33;;;;;;;6.38;4.50;;;;;;;16.54;97.18;100339.72;3594979;40;20075;-42
2021/08/05 05:58:00;;;;;;;9.60;5.10;;;;;;;16.57;97.43;100338.00;3594631;39;20088;-42
2021/08/05 06:00:27;;;;;;;8.60;4.80;;;;;;;16.60;98.05;100338.84;3594504;40;20321;-42
2021/08/05 06:02:55;;;;;;;7.35;4.93;;;;;;;17.15;95.03;100343.75;3594514;40;20096;-43
2021/08/05 06:05:22;;;;;;;5.45;4.63;;;;;;;17.07;96.06;100340.34;3594517;40;20051;-43
2021/08/05 06:07:51;;;;;;;7.55;5.15;;;;;;;17.16;95.18;100337.69;3594328;39;20056;-43
2021/08/05 06:10:21;;;;;;;5.85;5.30;;;;;;;16.95;96.12;100341.28;3594163;40;20444;-43
2021/08/05 06:12:49;;;;;;;5.78;4.90;;;;;;;16.90;94.34;100335.28;3594660;40;20063;-43
2021/08/05 06:15:17;;;;;;;5.80;5.00;;;;;;;17.18;95.41;100337.69;3585156;40;20050;-43
2021/08/05 06:17:45;;;;;;;6.93;5.40;;;;;;;16.69;96.66;100346.56;3593796;39;20437;-44
2021/08/05 06:20:16;;;;;;;5.20;4.80;;;;;;;16.65;96.96;100337.09;3594465;40;20051;-43
2021/08/05 06:22:45;;;;;;;5.50;4.90;;;;;;;17.02;96.09;100342.09;3594727;40;20066;-43
2021/08/05 06:25:13;;;;;;;6.20;5.18;;;;;;;16.84;96.92;100340.47;3594466;40;20131;-43
2021/08/05 06:27:41;;;;;;;11.10;5.53;;;;;;;16.82;97.29;100337.03;3594214;39;20066;-42
2021/08/05 06:30:10;;;;;;;8.25;4.95;;;;;;;16.84;96.24;100342.22;3594484;40;20068;-45
2021/08/05 06:32:37;;;;;;;6.25;5.65;;;;;;;17.18;97.01;100338.53;3594693;40;20075;-43
2021/08/05 06:35:05;;;;;;;9.13;6.03;;;;;;;17.21;94.64;100335.94;3594604;40;20344;-43
2021/08/05 06:37:33;;;;;;;5.82;4.95;;;;;;;17.15;95.23;100336.00;3594033;39;20074;-44
2021/08/05 06:40:04;;;;;;;5.68;4.88;;;;;;;17.48;93.92;100339.19;3594439;40;20192;-44
2021/08/05 06:42:32;;;;;;;6.63;4.97;;;;;;;17.56;93.61;100337.38;3594075;40;20096;-44
2021/08/05 06:45:00;;;;;;;6.45;4.85;;;;;;;17.74;94.29;100344.16;3593855;40;20083;-44
2021/08/05 06:47:27;;;;;;;7.63;4.97;;;;;;;17.76;94.40;100348.47;3594309;39;20083;-43
2021/08/05 06:49:54;;;;;;;5.57;5.03;;;;;;;17.97;93.08;100342.19;3594048;40;20074;-43
2021/08/05 06:52:21;;;;;;;8.38;5.32;;;;;;;18.04;92.40;100345.59;3594594;40;20059;-43
2021/08/05 06:54:48;;;;;;;9.10;5.13;;;;;;;18.22;90.92;100347.13;3594334;40;20060;-42
2021/08/05 06:57:16;;;;;;;6.93;5.15;;;;;;;18.08;92.79;100349.88;3594309;39;20086;-45
2021/08/05 06:59:46;;;;;;;7.30;4.82;;;;;;;18.11;92.27;100347.22;3594400;40;20445;-47
2021/08/05 07:02:16;;;;;;;5.13;4.63;;;;;;;18.04;91.84;100350.78;3594428;40;20087;-44
2021/08/05 07:04:46;;;;;;;5.60;5.05;;;;;;;18.22;90.34;100347.13;3594603;40;20074;-45
2021/08/05 07:07:13;;;;;;;6.10;5.18;;;;;;;18.46;90.66;100351.16;3594563;39;20437;-46
2021/08/05 07:09:43;;;;;;;5.13;4.60;;;;;;;18.56;90.15;100348.44;3594451;40;20064;-47
2021/08/05 07:12:10;;;;;;;7.35;5.25;;;;;;;18.76;87.72;100352.53;3594116;40;20096;-47
2021/08/05 07:14:39;;;;;;;7.63;5.65;;;;;;;18.40;89.14;100351.25;3594641;40;20048;-45
2021/08/05 07:17:07;;;;;;;10.00;5.10;;;;;;;18.83;89.12;100349.00;3594908;39;20159;-45
2021/08/05 07:19:36;;;;;;;5.45;4.95;;;;;;;19.02;86.09;100350.44;3575958;40;20049;-45
2021/08/05 07:22:06;;;;;;;5.28;4.78;;;;;;;19.53;86.16;100347.91;3574501;40;20488;-45
2021/08/05 07:24:33;;;;;;;5.65;4.47;;;;;;;19.54;86.39;100347.03;3573965;40;20481;-47
2021/08/05 07:27:01;;;;;;;5.32;4.82;;;;;;;19.64;83.31;100347.75;3573718;40;20069;-44
2021/08/05 07:29:29;;;;;;;10.40;5.60;;;;;;;19.94;83.77;100342.94;3573745;40;20071;-44
2021/08/05 07:32:01;;;;;;;8.30;5.80;;;;;;;20.23;83.13;100342.38;3573727;40;20053;-45
2021/08/05 07:34:28;;;;;;;6.30;4.70;;;;;;;20.27;85.15;100342.28;3573545;40;20056;-44
2021/08/05 07:36:56;;;;;;;6.55;4.88;;;;;;;19.94;82.02;100342.94;3573645;40;20284;-44
2021/08/05 07:39:24;;;;;;;6.32;4.70;;;;;;;20.17;81.47;100339.91;3573583;40;20104;-44
2021/08/05 07:41:52;;;;;;;6.93;5.18;;;;;;;20.40;82.37;100355.03;3573578;40;20055;-45
2021/08/05 07:44:20;;;;;;;6.38;4.70;;;;;;;20.46;81.83;100340.16;3573834;40;20063;-45
2021/08/05 07:46:48;;;;;;;8.40;5.13;;;;;;;20.85;80.43;100341.09;3573606;40;20060;-47
2021/08/05 07:49:16;;;;;;;5.28;4.75;;;;;;;20.69;82.43;100338.84;3573603;40;20085;-47
2021/08/05 07:51:43;;;;;;;6.60;4.63;;;;;;;20.96;81.44;100345.19;3573575;40;20042;-46
2021/08/05 07:54:10;;;;;;;5.57;5.00;;;;;;;20.83;80.34;100339.41;3573939;40;20345;-45
2021/08/05 07:56:37;;;;;;;8.00;4.55;;;;;;;20.59;80.75;100333.84;3573820;40;20168;-46
2021/08/05 07:59:04;;;;;;;5.03;4.00;;;;;;;20.85;80.92;100333.28;3573305;40;20052;-45
2021/08/05 08:01:31;;;;;;;7.10;4.38;;;;;;;20.99;78.59;100332.13;3573752;40;20328;-44
2021/08/05 08:03:59;;;;;;;5.75;4.32;;;;;;;20.71;79.53;100331.88;3582798;40;20107;-45
2021/08/05 08:06:26;;;;;;;7.95;4.07;;;;;;;21.16;79.92;100335.16;3583429;40;20045;-44
2021/08/05 08:08:53;;;;;;;4.78;4.28;;;;;;;21.63;77.03;100324.50;3583421;40;20075;-44
2021/08/05 08:11:23;;;;;;;5.53;4.22;;;;;;;22.41;74.99;100325.88;3583569;40;20096;-44
2021/08/05 08:13:51;;;;;;;4.15;3.75;;;;;;;22.44;74.34;100325.78;3583572;40;20092;-44
2021/08/05 08:16:20;;;;;;;4.40;4.00;;;;;;;22.33;72.59;100323.50;3583428;40;20055;-46
2021/08/05 08:18:48;;;;;;;6.63;4.13;;;;;;;22.36;75.85;100332.97;3583493;40;20049;-44
2021/08/05 08:21:16;;;;;;;4.78;4.13;;;;;;;22.34;74.23;100321.75;3583157;40;20064;-45
2021/08/05 08:23:44;;;;;;;5.22;3.95;;;;;;;22.57;71.60;100323.69;3583684;40;20082;-45
2021/08/05 08:26:12;;;;;;;4.03;3.42;;;;;;;22.13;74.80;100323.19;3583330;40;20049;-47
2021/08/05 08:28:39;;;;;;;4.38;3.90;;;;;;;22.68;72.66;100323.34;3583455;40;20492;-45
2021/08/05 08:31:07;;;;;;;4.25;3.80;;;;;;;23.28;69.83;100328.44;3583437;40;20033;-45
2021/08/05 08:33:35;;;;;;;4.15;3.83;;;;;;;22.80;69.39;100315.16;3583557;40;20543;-45
2021/08/05 08:36:02;;;;;;;5.70;4.00;;;;;;;23.06;71.47;100320.47;3576883;40;20065;-45
2021/08/05 08:38:29;;;;;;;5.40;4.30;;;;;;;22.66;71.63;100318.19;3572733;40;20055;-46
2021/08/05 08:41:00;;;;;;;4.60;4.20;;;;;;;22.86;71.34;100320.19;3574037;40;20081;-44
2021/08/05 08:43:28;;;;;;;5.53;3.83;;;;;;;23.14;70.51;100312.34;3575052;40;20085;-45
2021/08/05 08:45:56;;;;;;;4.57;3.58;;;;;;;24.24;71.16;100312.97;3575072;40;20051;-47
2021/08/05 08:48:27;;;;;;;6.32;4.07;;;;;;;24.26;66.95;100305.91;3574984;40;20053;-45
2021/08/05 08:50:59;;;;;;;3.95;3.65;;;;;;;24.04;66.96;100314.56;3575080;40;20056;-45
2021/08/05 08:53:31;;;;;;;5.88;3.75;;;;;;;24.69;66.99;100307.78;3574668;40;20326;-45
2021/08/05 08:56:00;;;;;;;4.70;3.67;;;;;;;24.32;65.21;100303.06;3574706;40;20503;-45
2021/08/05 08:58:28;;;;;;;4.88;3.80;;;;;;;24.48;63.34;100306.00;3575005;40;20064;-46
2021/08/05 09:00:55;;;;;;;4.28;3.28;;;;;;;23.70;66.25;100301.78;3574900;40;20081;-44
2021/08/05 09:03:22;;;;;;;4.70;3.63;;;;;;;23.28;67.77;100293.63;3574799;40;20052;-44
2021/08/05 09:05:50;;;;;;;4.03;3.63;;;;;;;24.10;65.00;100290.78;3574801;40;20395;-46
2021/08/05 09:08:17;;;;;;;5.05;3.72;;;;;;;24.95;61.10;100290.19;3574645;40;20057;-46
2021/08/05 09:10:45;;;;;;;4.10;3.38;;;;;;;24.73;63.76;100300.66;3574804;40;20081;-46
2021/08/05 09:13:15;;;;;;;4.60;3.30;;;;;;;24.77;61.58;100294.38;3580640;40;20413;-45
2021/08/05 09:15:45;;;;;;;4.93;3.60;;;;;;;25.04;60.04;100289.81;3584937;40;20096;-43
2021/08/05 09:18:31;;;;;;;3.92;3.28;;;;;;;25.15;59.83;100290.28;3584607;40;20437;-45
2021/08/05 09:21:15;;;;;;;4.40;3.35;;;;;;;24.54;60.07;100304.00;3585049;40;20608;-44
2021/08/05 09:24:12;;;;;;;4.40;4.00;;;;;;;24.44;60.69;100293.91;3584744;40;20047;-44
2021/08/05 09:26:47;;;;;;;5.70;4.00;;;;;;;24.49;61.62;100289.38;3580896;40;20045;-44
2021/08/05 09:29:16;;;;;;;3.95;3.65;;;;;;;24.06;62.15;100277.84;3581472;40;20609;-44
2021/08/05 09:31:47;;;;;;;6.65;4.50;;;;;;;24.02;62.21;100278.88;3573766;40;20039;-46
2021/08/05 09:34:17;;;;;;;4.40;4.00;;;;;;;25.20;62.16;100283.06;3583114;40;20353;-47
2021/08/05 09:36:46;;;;;;;4.70;4.30;;;;;;;25.23;58.99;100280.31;3584716;40;20519;-47
2021/08/05 09:39:22;;;;;;;4.70;3.50;;;;;;;24.62;61.75;100280.97;3584650;40;20092;-45
2021/08/05 09:42:07;;;;;;;6.13;4.30;;;;;;;24.18;61.03;100277.41;3584362;40;20063;-45
2021/08/05 09:44:34;;;;;;;4.38;3.42;;;;;;;25.10;58.98;100273.91;3584293;40;20084;-46
2021/08/05 09:47:03;;;;;;;7.22;4.38;;;;;;;24.52;59.40;100276.16;3584312;40;20125;-47
2021/08/05 09:49:32;;;;;;;6.15;4.18;;;;;;;24.84;63.34;100265.28;3584730;40;20056;-43
2021/08/05 09:52:00;;;;;;;4.15;3.70;;;;;;;25.06;58.99;100272.28;3584027;40;20049;-44
2021/08/05 09:54:41;;;;;;;3.40;3.10;;;;;;;25.44;61.11;100267.22;3584463;40;20663;-44
2021/08/05 09:57:12;;;;;;;4.25;3.72;;;;;;;25.25;56.98;100268.00;3584140;40;20037;-43
2021/08/05 10:00:06;;;;;;;5.60;3.67;;;;;;;25.68;56.16;100266.16;3579397;40;20496;-43
2021/08/05 10:02:45;;;;;;;3.72;3.42;;;;;;;26.07;55.19;100265.38;3574258;40;20053;-45
2021/08/05 10:05:23;;;;;;;3.60;3.30;;;;;;;26.08;54.43;100267.91;3573994;40;20053;-43
2021/08/05 10:07:59;;;;;;;5.10;3.85;;;;;;;26.39;52.17;100267.34;3574271;40;20040;-45
2021/08/05 10:10:27;;;;;;;;;;;;;;;26.73;53.08;100260.53;3575198;40;20310;-47
2021/08/05 10:13:01;;;;;;;6.10;4.10;;;;;;;26.90;49.77;100259.69;3573901;40;19945;-44
2021/08/05 10:15:29;;;;;;;4.90;3.60;;;;;;;28.50;47.76;100260.22;3574174;40;20407;-43
2021/08/05 10:18:01;;;;;;;4.00;3.70;;;;;;;27.67;50.94;100259.34;3574431;40;20322;-50
2021/08/05 10:20:30;;;;;;;4.43;4.00;;;;;;;26.06;52.53;100247.88;3574376;40;20355;-46
2021/08/05 10:22:58;;;;;;;4.18;3.83;;;;;;;25.61;53.84;100238.53;3574525;40;20060;-45
2021/08/05 10:25:27;;;;;;;4.10;3.75;;;;;;;24.70;57.45;100236.16;3574265;40;20045;-44
2021/08/05 10:27:58;;;;;;;4.00;3.70;;;;;;;24.67;56.25;100238.91;3579653;40;20080;-44
2021/08/05 10:30:25;;;;;;;4.50;4.10;;;;;;;24.39;56.92;100247.84;3584395;40;20048;-43
2021/08/05 10:32:54;;;;;;;4.72;3.53;;;;;;;23.93;59.59;100234.75;3584629;40;20052;-43
2021/08/05 10:35:23;;;;;;;4.00;3.70;;;;;;;24.35;57.92;100247.97;3584784;40;20092;-45
2021/08/05 10:37:50;;;;;;;4.60;3.70;;;;;;;24.68;56.45;100243.22;3584117;40;20052;-44
2021/08/05 10:40:18;;;;;;;4.80;3.47;;;;;;;24.74;55.20;100234.28;3584132;40;20146;-45
2021/08/05 10:42:48;;;;;;;3.85;3.53;;;;;;;26.42;53.15;100243.56;3584231;40;20084;-44
2021/08/05 10:45:18;;;;;;;4.13;3.33;;;;;;;26.94;51.16;100242.00;3584626;40;20048;-47
2021/08/05 10:47:47;;;;;;;3.50;3.20;;;;;;;26.24;51.31;100236.53;3584197;40;20088;-46
2021/08/05 10:50:21;;;;;;;6.75;3.65;;;;;;;26.26;52.95;100232.09;3584054;40;20094;-45
2021/08/05 10:52:55;;;;;;;3.92;3.45;;;;;;;26.41;53.83;100231.38;3584015;40;20073;-45
2021/08/05 10:55:30;;;;;;;4.07;3.72;;;;;;;27.56;47.29;100233.59;3584108;40;20771;-45
2021/08/05 10:58:17;;;;;;;3.83;3.53;;;;;;;26.90;50.60;100228.16;3583788;40;20141;-46
2021/08/05 11:00:50;;;;;;;5.18;3.90;;;;;;;27.59;48.53;100224.69;3584194;40;20084;-44
2021/08/05 11:03:32;;;;;;;5.82;3.95;;;;;;;27.67;50.72;100222.50;3583954;40;20060;-45
2021/08/05 11:06:02;;;;;;;4.25;3.60;;;;;;;27.64;49.79;100220.91;3584508;40;20059;-45
2021/08/05 11:08:30;;;;;;;4.32;3.67;;;;;;;26.85;51.50;100203.88;3583269;40;20064;-47
2021/08/05 11:11:24;;;;;;;4.43;3.30;;;;;;;27.16;50.63;100198.81;3584020;40;20060;-45
2021/08/05 11:14:00;;;;;;;5.03;3.10;;;;;;;27.58;50.67;100199.31;3583910;40;20317;-44
2021/08/05 11:16:57;;;;;;;3.70;3.30;;;;;;;27.79;48.81;100203.47;3583948;40;20061;-45
2021/08/05 11:19:27;;;;;;;3.47;3.17;;;;;;;26.78;53.03;100195.47;3582803;40;20045;-45
2021/08/05 11:21:55;;;;;;;3.53;3.20;;;;;;;27.45;49.92;100188.59;3584231;40;20092;-46
2021/08/05 11:24:47;;;;;;;4.55;3.05;;;;;;;28.69;45.57;100184.44;3584311;40;20071;-45
2021/08/05 11:27:15;;;;;;;5.60;3.20;;;;;;;28.69;45.92;100187.09;3583662;40;20035;-44
2021/08/05 11:29:42;;;;;;;3.38;3.00;;;;;;;28.16;46.65;100185.69;3583992;40;20052;-44
2021/08/05 11:32:22;;;;;;;3.33;2.78;;;;;;;26.61;48.88;100185.78;3583817;40;20071;-45
2021/08/05 11:35:02;;;;;;;3.50;3.00;;;;;;;27.78;46.94;100180.72;3583949;40;20052;-47